sensor_id;sensor_type;location;lat;lon;timestamp;pressure;altitude;pressure_sealevel;temperature;humidity
21838;BME280;11081;45.946;6.140;2022-07-17T00:00:43;95610.47;;;24.45;38.24
21838;BME280;11081;45.946;6.140;2022-07-17T00:03:12;95609.97;;;24.43;38.22
21838;BME280;11081;45.946;6.140;2022-07-17T00:05:42;95609.19;;;24.42;38.07
21838;BME280;11081;45.946;6.140;2022-07-17T00:08:11;95613.41;;;24.29;38.32
21838;BME280;11081;45.946;6.140;2022-07-17T00:10:41;95604.81;;;24.32;38.42
21838;BME280;11081;45.946;6.140;2022-07-17T00:13:11;95613.72;;;24.42;38.23
21838;BME280;11081;45.946;6.140;2022-07-17T00:15:39;95606.50;;;24.28;38.54
21838;BME280;11081;45.946;6.140;2022-07-17T00:18:07;95606.41;;;24.33;38.87
21838;BME280;11081;45.946;6.140;2022-07-17T00:20:35;95607.00;;;24.44;38.60
21838;BME280;11081;45.946;6.140;2022-07-17T00:23:03;95605.91;;;24.45;37.85
21838;BME280;11081;45.946;6.140;2022-07-17T00:25:31;95605.84;;;24.37;38.09
21838;BME280;11081;45.946;6.140;2022-07-17T00:28:00;95606.56;;;24.23;38.54
21838;BME280;11081;45.946;6.140;2022-07-17T00:30:29;95601.03;;;24.06;39.97
21838;BME280;11081;45.946;6.140;2022-07-17T00:32:57;95606.91;;;23.76;40.71
21838;BME280;11081;45.946;6.140;2022-07-17T00:35:25;95602.91;;;23.59;40.47
21838;BME280;11081;45.946;6.140;2022-07-17T00:37:54;95601.63;;;23.52;40.62
21838;BME280;11081;45.946;6.140;2022-07-17T00:40:23;95608.94;;;23.46;41.07
21838;BME280;11081;45.946;6.140;2022-07-17T00:42:52;95623.34;;;23.45;41.73
21838;BME280;11081;45.946;6.140;2022-07-17T00:45:21;95617.59;;;23.38;42.33
21838;BME280;11081;45.946;6.140;2022-07-17T00:47:58;95617.38;;;23.34;42.00
21838;BME280;11081;45.946;6.140;2022-07-17T00:50:28;95620.09;;;23.10;42.73
21838;BME280;11081;45.946;6.140;2022-07-17T00:52:57;95622.75;;;23.10;42.55
21838;BME280;11081;45.946;6.140;2022-07-17T00:55:25;95624.88;;;23.14;42.46
21838;BME280;11081;45.946;6.140;2022-07-17T00:58:12;95625.00;;;23.22;41.54
21838;BME280;11081;45.946;6.140;2022-07-17T01:00:43;95619.16;;;23.39;41.24
21838;BME280;11081;45.946;6.140;2022-07-17T01:03:12;95622.75;;;23.48;40.32
21838;BME280;11081;45.946;6.140;2022-07-17T01:05:41;95624.63;;;23.66;40.30
21838;BME280;11081;45.946;6.140;2022-07-17T01:08:10;95620.72;;;23.78;39.94
21838;BME280;11081;45.946;6.140;2022-07-17T01:10:38;95617.66;;;23.84;39.39
21838;BME280;11081;45.946;6.140;2022-07-17T01:13:06;95618.97;;;23.87;40.05
21838;BME280;11081;45.946;6.140;2022-07-17T01:15:37;95620.53;;;23.88;39.84
21838;BME280;11081;45.946;6.140;2022-07-17T01:18:07;95614.41;;;23.87;39.79
21838;BME280;11081;45.946;6.140;2022-07-17T01:20:38;95608.38;;;23.82;40.17
21838;BME280;11081;45.946;6.140;2022-07-17T01:23:09;95606.66;;;23.72;39.47
21838;BME280;11081;45.946;6.140;2022-07-17T01:25:37;95610.13;;;23.72;39.83
21838;BME280;11081;45.946;6.140;2022-07-17T01:28:06;95608.03;;;23.69;40.10
21838;BME280;11081;45.946;6.140;2022-07-17T01:30:35;95606.91;;;23.76;40.23
21838;BME280;11081;45.946;6.140;2022-07-17T01:33:04;95603.69;;;23.73;39.41
21838;BME280;11081;45.946;6.140;2022-07-17T01:35:32;95613.38;;;23.69;39.72
21838;BME280;11081;45.946;6.140;2022-07-17T01:38:00;95605.19;;;23.47;39.93
21838;BME280;11081;45.946;6.140;2022-07-17T01:40:30;95604.34;;;23.33;40.78
21838;BME280;11081;45.946;6.140;2022-07-17T01:42:58;95598.75;;;23.16;41.30
21838;BME280;11081;45.946;6.140;2022-07-17T01:45:26;95604.50;;;23.23;40.82
21838;BME280;11081;45.946;6.140;2022-07-17T01:47:54;95608.72;;;23.05;40.81
21838;BME280;11081;45.946;6.140;2022-07-17T01:50:22;95602.78;;;22.94;41.41
21838;BME280;11081;45.946;6.140;2022-07-17T01:52:50;95610.81;;;22.89;41.79
21838;BME280;11081;45.946;6.140;2022-07-17T01:55:18;95604.06;;;23.16;40.89
21838;BME280;11081;45.946;6.140;2022-07-17T01:57:48;95609.81;;;23.23;41.10
21838;BME280;11081;45.946;6.140;2022-07-17T02:00:18;95605.19;;;23.09;41.11
21838;BME280;11081;45.946;6.140;2022-07-17T02:02:49;95604.88;;;23.16;40.73
21838;BME280;11081;45.946;6.140;2022-07-17T02:05:18;95599.03;;;23.33;40.68
21838;BME280;11081;45.946;6.140;2022-07-17T02:07:46;95608.50;;;23.39;40.33
21838;BME280;11081;45.946;6.140;2022-07-17T02:10:15;95609.09;;;23.36;40.65
21838;BME280;11081;45.946;6.140;2022-07-17T02:12:43;95613.84;;;23.39;40.50
21838;BME280;11081;45.946;6.140;2022-07-17T02:15:13;95610.09;;;23.40;40.75
21838;BME280;11081;45.946;6.140;2022-07-17T02:17:42;95608.66;;;23.29;41.07
21838;BME280;11081;45.946;6.140;2022-07-17T02:20:10;95608.81;;;23.19;40.99
21838;BME280;11081;45.946;6.140;2022-07-17T02:22:39;95603.63;;;23.08;41.42
21838;BME280;11081;45.946;6.140;2022-07-17T02:25:08;95610.03;;;23.07;41.69
21838;BME280;11081;45.946;6.140;2022-07-17T02:27:37;95606.22;;;23.14;41.20
21838;BME280;11081;45.946;6.140;2022-07-17T02:30:09;95609.97;;;23.13;41.22
21838;BME280;11081;45.946;6.140;2022-07-17T02:32:39;95616.44;;;23.06;41.78
21838;BME280;11081;45.946;6.140;2022-07-17T02:35:09;95611.50;;;22.76;42.94
21838;BME280;11081;45.946;6.140;2022-07-17T02:37:38;95611.28;;;22.48;43.78
21838;BME280;11081;45.946;6.140;2022-07-17T02:40:10;95613.78;;;22.16;44.30
21838;BME280;11081;45.946;6.140;2022-07-17T02:42:38;95617.03;;;22.13;44.53
21838;BME280;11081;45.946;6.140;2022-07-17T02:45:07;95606.66;;;22.11;44.42
21838;BME280;11081;45.946;6.140;2022-07-17T02:47:36;95609.09;;;22.08;44.39
21838;BME280;11081;45.946;6.140;2022-07-17T02:50:07;95602.00;;;22.22;43.83
21838;BME280;11081;45.946;6.140;2022-07-17T02:52:36;95593.22;;;22.45;43.49
21838;BME280;11081;45.946;6.140;2022-07-17T02:55:05;95595.31;;;22.48;43.30
21838;BME280;11081;45.946;6.140;2022-07-17T02:57:33;95600.91;;;22.28;44.02
21838;BME280;11081;45.946;6.140;2022-07-17T03:00:02;95597.16;;;22.29;43.68
21838;BME280;11081;45.946;6.140;2022-07-17T03:02:31;95595.44;;;22.38;43.26
21838;BME280;11081;45.946;6.140;2022-07-17T03:04:59;95602.94;;;22.36;43.63
21838;BME280;11081;45.946;6.140;2022-07-17T03:07:29;95597.16;;;22.29;43.97
21838;BME280;11081;45.946;6.140;2022-07-17T03:09:56;95601.63;;;22.10;44.16
21838;BME280;11081;45.946;6.140;2022-07-17T03:12:24;95599.72;;;21.81;44.86
21838;BME280;11081;45.946;6.140;2022-07-17T03:14:53;95606.91;;;21.52;45.74
21838;BME280;11081;45.946;6.140;2022-07-17T03:17:21;95614.16;;;21.41;46.45
21838;BME280;11081;45.946;6.140;2022-07-17T03:19:49;95606.41;;;21.50;46.74
21838;BME280;11081;45.946;6.140;2022-07-17T03:22:17;95602.91;;;21.54;46.82
21838;BME280;11081;45.946;6.140;2022-07-17T03:24:46;95599.84;;;21.71;46.22
21838;BME280;11081;45.946;6.140;2022-07-17T03:27:14;95606.56;;;21.92;45.53
21838;BME280;11081;45.946;6.140;2022-07-17T03:29:43;95593.09;;;22.13;45.12
21838;BME280;11081;45.946;6.140;2022-07-17T03:32:11;95599.88;;;22.24;44.70
21838;BME280;11081;45.946;6.140;2022-07-17T03:34:40;95604.06;;;22.30;44.41
21838;BME280;11081;45.946;6.140;2022-07-17T03:37:08;95608.09;;;21.99;45.60
21838;BME280;11081;45.946;6.140;2022-07-17T03:39:36;95603.59;;;21.65;46.63
21838;BME280;11081;45.946;6.140;2022-07-17T03:42:05;95609.56;;;21.52;46.87
21838;BME280;11081;45.946;6.140;2022-07-17T03:44:33;95611.06;;;21.29;47.16
21838;BME280;11081;45.946;6.140;2022-07-17T03:47:01;95602.38;;;21.13;47.89
21838;BME280;11081;45.946;6.140;2022-07-17T03:49:30;95608.72;;;21.17;47.71
21838;BME280;11081;45.946;6.140;2022-07-17T03:51:58;95613.44;;;21.30;47.45
21838;BME280;11081;45.946;6.140;2022-07-17T03:54:26;95619.22;;;21.38;47.52
21838;BME280;11081;45.946;6.140;2022-07-17T03:56:54;95620.81;;;21.39;47.96
21838;BME280;11081;45.946;6.140;2022-07-17T03:59:23;95612.28;;;21.42;48.09
21838;BME280;11081;45.946;6.140;2022-07-17T04:01:51;95616.75;;;21.51;48.03
21838;BME280;11081;45.946;6.140;2022-07-17T04:04:20;95619.72;;;21.45;48.10
21838;BME280;11081;45.946;6.140;2022-07-17T04:06:48;95617.13;;;21.35;48.08
21838;BME280;11081;45.946;6.140;2022-07-17T04:09:16;95623.69;;;20.98;48.84
21838;BME280;11081;45.946;6.140;2022-07-17T04:11:44;95621.13;;;20.88;49.31
21838;BME280;11081;45.946;6.140;2022-07-17T04:14:12;95635.63;;;21.00;48.95
21838;BME280;11081;45.946;6.140;2022-07-17T04:16:42;95624.16;;;21.10;48.95
21838;BME280;11081;45.946;6.140;2022-07-17T04:19:10;95629.47;;;21.10;48.91
21838;BME280;11081;45.946;6.140;2022-07-17T04:21:38;95630.31;;;21.06;49.13
21838;BME280;11081;45.946;6.140;2022-07-17T04:24:07;95628.44;;;21.06;48.90
21838;BME280;11081;45.946;6.140;2022-07-17T04:26:35;95631.09;;;21.01;48.97
21838;BME280;11081;45.946;6.140;2022-07-17T04:29:03;95624.94;;;20.56;50.07
21838;BME280;11081;45.946;6.140;2022-07-17T04:31:31;95632.88;;;20.66;50.04
21838;BME280;11081;45.946;6.140;2022-07-17T04:34:01;95633.34;;;20.79;49.71
21838;BME280;11081;45.946;6.140;2022-07-17T04:36:29;95632.22;;;20.95;49.67
21838;BME280;11081;45.946;6.140;2022-07-17T04:38:57;95620.50;;;21.01;49.09
21838;BME280;11081;45.946;6.140;2022-07-17T04:41:25;95625.53;;;21.02;48.99
21838;BME280;11081;45.946;6.140;2022-07-17T04:43:53;95620.91;;;21.18;48.61
21838;BME280;11081;45.946;6.140;2022-07-17T04:46:21;95625.97;;;20.70;49.36
21838;BME280;11081;45.946;6.140;2022-07-17T04:48:49;95617.44;;;20.79;49.59
21838;BME280;11081;45.946;6.140;2022-07-17T04:51:19;95623.41;;;20.99;49.57
21838;BME280;11081;45.946;6.140;2022-07-17T04:53:47;95618.25;;;21.18;48.55
21838;BME280;11081;45.946;6.140;2022-07-17T04:56:15;95627.94;;;21.43;48.10
21838;BME280;11081;45.946;6.140;2022-07-17T04:58:43;95628.22;;;21.42;48.08
21838;BME280;11081;45.946;6.140;2022-07-17T05:01:11;95635.00;;;21.58;48.55
21838;BME280;11081;45.946;6.140;2022-07-17T05:03:39;95623.97;;;21.41;49.31
21838;BME280;11081;45.946;6.140;2022-07-17T05:06:07;95619.28;;;21.33;50.03
21838;BME280;11081;45.946;6.140;2022-07-17T05:08:37;95620.91;;;21.18;50.63
21838;BME280;11081;45.946;6.140;2022-07-17T05:11:05;95623.56;;;21.18;50.63
21838;BME280;11081;45.946;6.140;2022-07-17T05:13:33;95627.03;;;21.19;50.90
21838;BME280;11081;45.946;6.140;2022-07-17T05:16:01;95628.38;;;21.16;50.99
21838;BME280;11081;45.946;6.140;2022-07-17T05:18:29;95628.88;;;21.18;51.35
21838;BME280;11081;45.946;6.140;2022-07-17T05:20:57;95630.97;;;21.21;51.17
21838;BME280;11081;45.946;6.140;2022-07-17T05:23:25;95628.84;;;21.23;50.14
21838;BME280;11081;45.946;6.140;2022-07-17T05:25:55;95630.88;;;21.42;49.55
21838;BME280;11081;45.946;6.140;2022-07-17T05:28:23;95638.75;;;21.57;48.91
21838;BME280;11081;45.946;6.140;2022-07-17T05:30:51;95630.72;;;21.62;48.70
21838;BME280;11081;45.946;6.140;2022-07-17T05:33:19;95632.75;;;21.75;48.05
21838;BME280;11081;45.946;6.140;2022-07-17T05:35:47;95628.91;;;21.91;47.92
21838;BME280;11081;45.946;6.140;2022-07-17T05:38:15;95632.06;;;21.94;48.47
21838;BME280;11081;45.946;6.140;2022-07-17T05:40:43;95632.84;;;21.94;49.21
21838;BME280;11081;45.946;6.140;2022-07-17T05:43:12;95637.16;;;21.90;49.56
21838;BME280;11081;45.946;6.140;2022-07-17T05:45:40;95638.56;;;21.77;50.03
21838;BME280;11081;45.946;6.140;2022-07-17T05:48:08;95633.19;;;21.53;50.47
21838;BME280;11081;45.946;6.140;2022-07-17T05:50:36;95637.72;;;21.53;50.69
21838;BME280;11081;45.946;6.140;2022-07-17T05:53:04;95633.03;;;21.74;50.38
21838;BME280;11081;45.946;6.140;2022-07-17T05:55:32;95635.88;;;21.82;50.41
21838;BME280;11081;45.946;6.140;2022-07-17T05:58:00;95642.31;;;21.76;50.83
21838;BME280;11081;45.946;6.140;2022-07-17T06:00:30;95642.94;;;21.63;51.57
21838;BME280;11081;45.946;6.140;2022-07-17T06:02:58;95647.72;;;21.66;51.44
21838;BME280;11081;45.946;6.140;2022-07-17T06:05:27;95647.72;;;21.66;51.70
21838;BME280;11081;45.946;6.140;2022-07-17T06:07:56;95648.25;;;21.63;52.03
21838;BME280;11081;45.946;6.140;2022-07-17T06:10:25;95645.59;;;21.63;51.98
21838;BME280;11081;45.946;6.140;2022-07-17T06:12:54;95640.78;;;21.65;52.06
21838;BME280;11081;45.946;6.140;2022-07-17T06:15:23;95645.00;;;21.71;51.99
21838;BME280;11081;45.946;6.140;2022-07-17T06:17:52;95639.03;;;21.84;51.78
21838;BME280;11081;45.946;6.140;2022-07-17T06:20:20;95648.56;;;21.90;51.57
21838;BME280;11081;45.946;6.140;2022-07-17T06:22:48;95641.13;;;21.92;50.67
21838;BME280;11081;45.946;6.140;2022-07-17T06:25:16;95647.34;;;22.12;51.10
21838;BME280;11081;45.946;6.140;2022-07-17T06:27:44;95648.22;;;22.31;50.38
21838;BME280;11081;45.946;6.140;2022-07-17T06:30:14;95642.78;;;22.41;49.66
21838;BME280;11081;45.946;6.140;2022-07-17T06:32:42;95654.44;;;22.45;50.04
21838;BME280;11081;45.946;6.140;2022-07-17T06:35:12;95647.75;;;22.48;49.37
21838;BME280;11081;45.946;6.140;2022-07-17T06:37:40;95654.59;;;22.78;49.29
21838;BME280;11081;45.946;6.140;2022-07-17T06:40:08;95651.50;;;22.95;47.93
21838;BME280;11081;45.946;6.140;2022-07-17T06:42:36;95652.13;;;23.05;48.25
21838;BME280;11081;45.946;6.140;2022-07-17T06:45:05;95653.66;;;23.30;47.74
21838;BME280;11081;45.946;6.140;2022-07-17T06:47:33;95644.75;;;23.40;47.17
21838;BME280;11081;45.946;6.140;2022-07-17T06:50:01;95654.13;;;23.56;46.95
21838;BME280;11081;45.946;6.140;2022-07-17T06:52:31;95658.63;;;23.56;46.04
21838;BME280;11081;45.946;6.140;2022-07-17T06:54:59;95658.16;;;23.35;46.59
21838;BME280;11081;45.946;6.140;2022-07-17T06:57:27;95652.47;;;23.60;46.22
21838;BME280;11081;45.946;6.140;2022-07-17T06:59:55;95663.53;;;23.67;46.28
21838;BME280;11081;45.946;6.140;2022-07-17T07:02:23;95654.16;;;23.51;46.54
21838;BME280;11081;45.946;6.140;2022-07-17T07:04:51;95658.66;;;23.37;46.61
21838;BME280;11081;45.946;6.140;2022-07-17T07:07:19;95655.19;;;23.55;46.11
21838;BME280;11081;45.946;6.140;2022-07-17T07:09:48;95656.09;;;23.46;46.38
21838;BME280;11081;45.946;6.140;2022-07-17T07:12:17;95660.50;;;23.55;46.34
21838;BME280;11081;45.946;6.140;2022-07-17T07:14:46;95667.44;;;23.56;46.04
21838;BME280;11081;45.946;6.140;2022-07-17T07:17:14;95666.91;;;23.54;46.16
21838;BME280;11081;45.946;6.140;2022-07-17T07:19:42;95669.38;;;23.69;45.30
21838;BME280;11081;45.946;6.140;2022-07-17T07:22:10;95665.78;;;23.60;45.69
21838;BME280;11081;45.946;6.140;2022-07-17T07:24:38;95665.13;;;23.68;46.00
21838;BME280;11081;45.946;6.140;2022-07-17T07:27:08;95673.31;;;23.72;45.52
21838;BME280;11081;45.946;6.140;2022-07-17T07:29:36;95678.00;;;23.80;45.52
21838;BME280;11081;45.946;6.140;2022-07-17T07:32:04;95676.44;;;23.93;45.10
21838;BME280;11081;45.946;6.140;2022-07-17T07:34:32;95674.66;;;23.88;45.02
21838;BME280;11081;45.946;6.140;2022-07-17T07:37:00;95677.28;;;24.07;45.42
21838;BME280;11081;45.946;6.140;2022-07-17T07:39:28;95670.81;;;24.27;45.26
21838;BME280;11081;45.946;6.140;2022-07-17T07:41:57;95675.94;;;24.23;45.11
21838;BME280;11081;45.946;6.140;2022-07-17T07:44:26;95675.22;;;24.37;44.52
21838;BME280;11081;45.946;6.140;2022-07-17T07:46:58;95674.44;;;24.50;44.30
21838;BME280;11081;45.946;6.140;2022-07-17T07:49:26;95681.84;;;24.07;44.94
21838;BME280;11081;45.946;6.140;2022-07-17T07:52:05;95672.19;;;24.24;44.93
21838;BME280;11081;45.946;6.140;2022-07-17T07:54:34;95676.81;;;24.65;44.07
21838;BME280;11081;45.946;6.140;2022-07-17T07:57:02;95681.19;;;25.02;44.17
21838;BME280;11081;45.946;6.140;2022-07-17T07:59:32;95675.63;;;25.12;42.83
21838;BME280;11081;45.946;6.140;2022-07-17T08:02:00;95685.63;;;25.07;43.68
21838;BME280;11081;45.946;6.140;2022-07-17T08:04:28;95683.94;;;25.11;43.48
21838;BME280;11081;45.946;6.140;2022-07-17T08:06:56;95685.44;;;25.39;43.24
21838;BME280;11081;45.946;6.140;2022-07-17T08:09:25;95682.44;;;25.54;42.74
21838;BME280;11081;45.946;6.140;2022-07-17T08:11:53;95689.84;;;25.58;42.48
21838;BME280;11081;45.946;6.140;2022-07-17T08:14:21;95689.00;;;25.48;42.79
21838;BME280;11081;45.946;6.140;2022-07-17T08:16:50;95688.28;;;25.07;43.12
21838;BME280;11081;45.946;6.140;2022-07-17T08:19:19;95684.09;;;25.28;43.42
21838;BME280;11081;45.946;6.140;2022-07-17T08:21:47;95681.47;;;25.50;43.13
21838;BME280;11081;45.946;6.140;2022-07-17T08:24:15;95682.13;;;25.70;42.43
21838;BME280;11081;45.946;6.140;2022-07-17T08:26:44;95676.34;;;25.40;43.06
21838;BME280;11081;45.946;6.140;2022-07-17T08:29:12;95673.97;;;25.39;42.92
21838;BME280;11081;45.946;6.140;2022-07-17T08:31:40;95677.66;;;25.65;42.36
21838;BME280;11081;45.946;6.140;2022-07-17T08:34:09;95675.69;;;25.71;42.43
21838;BME280;11081;45.946;6.140;2022-07-17T08:36:37;95673.25;;;25.83;42.51
21838;BME280;11081;45.946;6.140;2022-07-17T08:39:05;95682.63;;;25.72;41.85
21838;BME280;11081;45.946;6.140;2022-07-17T08:41:37;95681.69;;;25.40;42.61
21838;BME280;11081;45.946;6.140;2022-07-17T08:44:05;95678.84;;;25.59;42.92
21838;BME280;11081;45.946;6.140;2022-07-17T08:46:35;95682.22;;;25.65;42.31
21838;BME280;11081;45.946;6.140;2022-07-17T08:49:05;95672.88;;;25.76;42.63
21838;BME280;11081;45.946;6.140;2022-07-17T08:51:35;95687.78;;;25.54;42.57
21838;BME280;11081;45.946;6.140;2022-07-17T08:54:11;95689.19;;;25.52;42.65
21838;BME280;11081;45.946;6.140;2022-07-17T08:56:39;95689.75;;;25.63;42.52
21838;BME280;11081;45.946;6.140;2022-07-17T08:59:08;95686.50;;;25.88;42.22
21838;BME280;11081;45.946;6.140;2022-07-17T09:01:36;95693.56;;;26.06;41.38
21838;BME280;11081;45.946;6.140;2022-07-17T09:04:05;95686.25;;;25.98;42.43
21838;BME280;11081;45.946;6.140;2022-07-17T09:06:36;95685.84;;;26.05;41.75
21838;BME280;11081;45.946;6.140;2022-07-17T09:09:07;95686.03;;;25.86;41.63
21838;BME280;11081;45.946;6.140;2022-07-17T09:11:44;95687.84;;;25.99;42.55
21838;BME280;11081;45.946;6.140;2022-07-17T09:14:13;95685.88;;;26.36;42.08
21838;BME280;11081;45.946;6.140;2022-07-17T09:16:48;95672.09;;;26.51;40.51
21838;BME280;11081;45.946;6.140;2022-07-17T09:19:26;95682.19;;;26.54;41.62
21838;BME280;11081;45.946;6.140;2022-07-17T09:22:05;95679.22;;;26.64;42.09
21838;BME280;11081;45.946;6.140;2022-07-17T09:24:47;95682.91;;;26.86;41.44
21838;BME280;11081;45.946;6.140;2022-07-17T09:27:29;95688.72;;;26.79;40.94
21838;BME280;11081;45.946;6.140;2022-07-17T09:30:00;95692.69;;;26.82;40.90
21838;BME280;11081;45.946;6.140;2022-07-17T09:32:30;95693.63;;;26.86;40.38
21838;BME280;11081;45.946;6.140;2022-07-17T09:34:59;95688.03;;;26.65;40.82
21838;BME280;11081;45.946;6.140;2022-07-17T09:37:30;95704.19;;;26.82;41.17
21838;BME280;11081;45.946;6.140;2022-07-17T09:39:59;95700.88;;;26.77;40.42
21838;BME280;11081;45.946;6.140;2022-07-17T09:42:29;95696.66;;;26.93;40.95
21838;BME280;11081;45.946;6.140;2022-07-17T09:45:00;95695.31;;;27.04;41.91
21838;BME280;11081;45.946;6.140;2022-07-17T09:47:30;95692.81;;;27.16;40.79
21838;BME280;11081;45.946;6.140;2022-07-17T09:49:59;95698.19;;;27.16;40.78
21838;BME280;11081;45.946;6.140;2022-07-17T09:52:32;95692.34;;;27.14;40.10
21838;BME280;11081;45.946;6.140;2022-07-17T09:55:02;95698.44;;;27.06;40.22
21838;BME280;11081;45.946;6.140;2022-07-17T09:57:51;95687.72;;;27.06;39.98
21838;BME280;11081;45.946;6.140;2022-07-17T10:00:21;95694.41;;;27.17;39.62
21838;BME280;11081;45.946;6.140;2022-07-17T10:02:50;95694.41;;;27.17;39.62
21838;BME280;11081;45.946;6.140;2022-07-17T10:05:18;95697.84;;;27.09;39.49
21838;BME280;11081;45.946;6.140;2022-07-17T10:07:48;95705.13;;;27.17;40.20
21838;BME280;11081;45.946;6.140;2022-07-17T10:10:17;95698.81;;;27.13;39.83
21838;BME280;11081;45.946;6.140;2022-07-17T10:12:47;95692.50;;;27.26;39.92
21838;BME280;11081;45.946;6.140;2022-07-17T10:15:16;95688.91;;;27.48;39.34
21838;BME280;11081;45.946;6.140;2022-07-17T10:17:47;95687.50;;;27.51;39.38
21838;BME280;11081;45.946;6.140;2022-07-17T10:20:24;95693.03;;;27.54;39.00
21838;BME280;11081;45.946;6.140;2022-07-17T10:22:54;95687.69;;;27.63;39.23
21838;BME280;11081;45.946;6.140;2022-07-17T10:25:22;95696.66;;;27.84;39.68
21838;BME280;11081;45.946;6.140;2022-07-17T10:27:51;95689.25;;;27.99;39.51
21838;BME280;11081;45.946;6.140;2022-07-17T10:30:24;95692.22;;;28.06;38.90
21838;BME280;11081;45.946;6.140;2022-07-17T10:32:57;95689.06;;;28.04;38.83
21838;BME280;11081;45.946;6.140;2022-07-17T10:35:26;95687.78;;;28.10;39.35
21838;BME280;11081;45.946;6.140;2022-07-17T10:38:08;95701.72;;;28.12;38.67
21838;BME280;11081;45.946;6.140;2022-07-17T10:40:37;95692.22;;;28.06;38.94
21838;BME280;11081;45.946;6.140;2022-07-17T10:43:06;95693.16;;;28.10;38.87
21838;BME280;11081;45.946;6.140;2022-07-17T10:45:35;95684.31;;;28.18;38.67
21838;BME280;11081;45.946;6.140;2022-07-17T10:48:07;95686.84;;;28.06;38.55
21838;BME280;11081;45.946;6.140;2022-07-17T10:50:36;95691.25;;;28.19;38.76
21838;BME280;11081;45.946;6.140;2022-07-17T10:53:10;95699.31;;;28.19;39.04
21838;BME280;11081;45.946;6.140;2022-07-17T10:55:40;95689.19;;;28.24;39.38
21838;BME280;11081;45.946;6.140;2022-07-17T10:58:17;95695.53;;;28.29;38.83
21838;BME280;11081;45.946;6.140;2022-07-17T11:00:59;95693.31;;;28.39;38.83
21838;BME280;11081;45.946;6.140;2022-07-17T11:03:27;95702.56;;;28.50;38.56
21838;BME280;11081;45.946;6.140;2022-07-17T11:06:06;95705.91;;;28.47;37.02
21838;BME280;11081;45.946;6.140;2022-07-17T11:08:40;95699.13;;;28.41;37.37
21838;BME280;11081;45.946;6.140;2022-07-17T11:11:09;95713.03;;;28.43;38.07
21838;BME280;11081;45.946;6.140;2022-07-17T11:13:45;95704.78;;;28.48;38.07
21838;BME280;11081;45.946;6.140;2022-07-17T11:16:26;95707.16;;;28.59;38.43
21838;BME280;11081;45.946;6.140;2022-07-17T11:18:55;95696.88;;;28.61;37.47
21838;BME280;11081;45.946;6.140;2022-07-17T11:21:24;95701.88;;;28.71;36.56
21838;BME280;11081;45.946;6.140;2022-07-17T11:23:56;95706.03;;;28.60;36.64
21838;BME280;11081;45.946;6.140;2022-07-17T11:26:24;95703.03;;;28.61;37.10
21838;BME280;11081;45.946;6.140;2022-07-17T11:28:55;95703.06;;;28.44;36.68
21838;BME280;11081;45.946;6.140;2022-07-17T11:31:28;95708.59;;;28.47;37.33
21838;BME280;11081;45.946;6.140;2022-07-17T11:33:58;95705.97;;;28.77;37.57
21838;BME280;11081;45.946;6.140;2022-07-17T11:36:28;95707.50;;;28.95;37.69
21838;BME280;11081;45.946;6.140;2022-07-17T11:39:03;95706.41;;;28.96;37.10
21838;BME280;11081;45.946;6.140;2022-07-17T11:41:36;95709.56;;;28.90;36.22
21838;BME280;11081;45.946;6.140;2022-07-17T11:44:06;95706.72;;;28.95;36.45
21838;BME280;11081;45.946;6.140;2022-07-17T11:46:34;95696.63;;;29.12;36.86
21838;BME280;11081;45.946;6.140;2022-07-17T11:49:03;95701.09;;;29.08;35.92
21838;BME280;11081;45.946;6.140;2022-07-17T11:51:39;95689.81;;;29.15;36.43
21838;BME280;11081;45.946;6.140;2022-07-17T11:54:11;95698.13;;;29.31;36.17
21838;BME280;11081;45.946;6.140;2022-07-17T11:56:40;95697.00;;;29.32;36.14
21838;BME280;11081;45.946;6.140;2022-07-17T11:59:09;95694.31;;;29.32;35.20
21838;BME280;11081;45.946;6.140;2022-07-17T12:01:39;95699.19;;;29.38;36.31
21838;BME280;11081;45.946;6.140;2022-07-17T12:04:08;95685.00;;;29.29;36.00
21838;BME280;11081;45.946;6.140;2022-07-17T12:06:42;95691.69;;;29.44;36.20
21838;BME280;11081;45.946;6.140;2022-07-17T12:09:12;95699.84;;;29.56;35.81
21838;BME280;11081;45.946;6.140;2022-07-17T12:11:48;95692.53;;;29.65;35.35
21838;BME280;11081;45.946;6.140;2022-07-17T12:14:17;95694.09;;;29.46;34.99
21838;BME280;11081;45.946;6.140;2022-07-17T12:16:45;95692.00;;;29.51;35.28
21838;BME280;11081;45.946;6.140;2022-07-17T12:19:15;95688.59;;;29.63;35.55
21838;BME280;11081;45.946;6.140;2022-07-17T12:21:51;95689.75;;;29.53;35.82
21838;BME280;11081;45.946;6.140;2022-07-17T12:24:25;95684.31;;;29.62;36.40
21838;BME280;11081;45.946;6.140;2022-07-17T12:26:55;95689.81;;;29.86;35.85
21838;BME280;11081;45.946;6.140;2022-07-17T12:29:24;95689.94;;;29.90;35.87
21838;BME280;11081;45.946;6.140;2022-07-17T12:32:04;95690.38;;;29.92;35.86
21838;BME280;11081;45.946;6.140;2022-07-17T12:34:33;95690.28;;;29.88;35.01
21838;BME280;11081;45.946;6.140;2022-07-17T12:37:02;95689.06;;;29.98;35.18
21838;BME280;11081;45.946;6.140;2022-07-17T12:39:32;95680.78;;;30.03;34.74
21838;BME280;11081;45.946;6.140;2022-07-17T12:42:02;95679.22;;;30.02;35.73
21838;BME280;11081;45.946;6.140;2022-07-17T12:44:30;95671.97;;;30.15;35.81
21838;BME280;11081;45.946;6.140;2022-07-17T12:46:58;95695.22;;;30.19;34.02
21838;BME280;11081;45.946;6.140;2022-07-17T12:49:26;95686.94;;;30.24;33.54
21838;BME280;11081;45.946;6.140;2022-07-17T12:51:54;95685.63;;;30.30;33.71
21838;BME280;11081;45.946;6.140;2022-07-17T12:54:22;95683.16;;;30.38;34.12
21838;BME280;11081;45.946;6.140;2022-07-17T12:56:53;95682.81;;;30.39;33.62
21838;BME280;11081;45.946;6.140;2022-07-17T12:59:21;95677.56;;;30.43;33.94
21838;BME280;11081;45.946;6.140;2022-07-17T13:01:49;95686.56;;;30.59;34.18
21838;BME280;11081;45.946;6.140;2022-07-17T13:04:18;95673.13;;;30.71;32.87
21838;BME280;11081;45.946;6.140;2022-07-17T13:06:47;95679.19;;;30.68;33.05
21838;BME280;11081;45.946;6.140;2022-07-17T13:09:15;95680.25;;;30.55;32.29
21838;BME280;11081;45.946;6.140;2022-07-17T13:11:46;95680.94;;;30.52;33.04